Time;durP1;ratioP1;P1;durP2;ratioP2;P2;SDS_P1;SDS_P2;PMS_P1;PMS_P2;Temp;Humidity;BMP_temperature;BMP_pressure;BME280_temperature;BME280_humidity;BME280_pressure;Samples;Min_cycle;Max_cycle;Signal;HPM_P1;HPM_P2
2021/12/22 00:01:55;;;;;;;25.30;15.35;;;-0.50;99.90;;;;;;5102324;28;20056;-71
2021/12/22 00:04:23;;;;;;;25.00;15.77;;;-0.20;99.90;;;;;;5079389;28;20070;-71
2021/12/22 00:06:49;;;;;;;24.60;15.50;;;-0.30;99.90;;;;;;5096044;28;20047;-71
2021/12/22 00:09:15;;;;;;;24.90;16.55;;;-0.80;99.90;;;;;;5082299;28;20495;-71
2021/12/22 00:11:40;;;;;;;28.15;17.40;;;-0.30;99.90;;;;;;5076060;28;20032;-71
2021/12/22 00:14:06;;;;;;;22.35;15.52;;;-0.30;99.90;;;;;;5109421;28;20036;-71
2021/12/22 00:16:32;;;;;;;24.80;15.13;;;-0.40;99.90;;;;;;5118260;27;20453;-71
2021/12/22 00:18:58;;;;;;;26.00;16.02;;;-0.30;99.90;;;;;;5112672;28;20118;-71
2021/12/22 00:21:23;;;;;;;25.95;15.57;;;-0.30;99.90;;;;;;5095244;28;20080;-72
2021/12/22 00:23:49;;;;;;;25.38;15.45;;;-0.30;99.90;;;;;;5111214;28;20082;-71
2021/12/22 00:26:15;;;;;;;23.88;14.20;;;-0.40;99.90;;;;;;5113005;28;20369;-72
2021/12/22 00:28:42;;;;;;;28.05;15.85;;;-0.50;99.90;;;;;;5078073;28;20099;-71
2021/12/22 00:31:12;;;;;;;21.25;15.55;;;-0.30;99.90;;;;;;5094891;28;20031;-71
2021/12/22 00:33:48;;;;;;;26.27;15.70;;;-0.30;99.90;;;;;;5095853;28;20047;-71
2021/12/22 00:36:23;;;;;;;28.73;15.50;;;-0.40;99.90;;;;;;5077774;28;20142;-70
2021/12/22 00:38:51;;;;;;;21.58;14.15;;;-0.40;99.90;;;;;;5078750;28;20492;-71
2021/12/22 00:41:17;;;;;;;26.33;18.20;;;-0.50;99.90;;;;;;5129347;27;20081;-70
2021/12/22 00:43:44;;;;;;;21.60;15.43;;;;;;;;;;5128885;27;20075;-70
2021/12/22 00:46:12;;;;;;;21.75;14.88;;;-0.40;99.90;;;;;;5085320;28;20043;-71
2021/12/22 00:48:38;;;;;;;23.05;13.25;;;-0.40;99.90;;;;;;5075128;28;20046;-72
2021/12/22 00:51:04;;;;;;;22.63;15.23;;;-0.50;99.90;;;;;;5074544;28;20086;-72
2021/12/22 00:53:29;;;;;;;24.88;15.15;;;-0.50;99.90;;;;;;5082135;28;20067;-71
2021/12/22 00:55:56;;;;;;;24.40;16.15;;;-0.50;99.90;;;;;;5129196;27;20051;-71
2021/12/22 00:58:21;;;;;;;24.75;15.65;;;-0.50;99.90;;;;;;5128213;27;20085;-71
2021/12/22 01:00:49;;;;;;;27.63;16.30;;;-0.40;99.90;;;;;;5094499;28;20039;-71
2021/12/22 01:03:15;;;;;;;24.35;15.75;;;;;;;;;;5095267;28;20094;-71
2021/12/22 01:05:41;;;;;;;26.60;16.55;;;-0.20;99.90;;;;;;5094488;28;20116;-71
2021/12/22 01:08:06;;;;;;;22.92;15.30;;;-0.50;99.90;;;;;;5072719;28;20035;-71
2021/12/22 01:10:32;;;;;;;25.48;17.00;;;-0.60;99.90;;;;;;5074560;28;20127;-70
2021/12/22 01:13:01;;;;;;;26.45;16.08;;;2.70;99.90;;;;;;5074175;28;20048;-71
2021/12/22 01:15:28;;;;;;;24.00;15.65;;;2.10;99.90;;;;;;5078828;28;20090;-71
2021/12/22 01:18:02;;;;;;;26.48;15.20;;;-0.60;99.90;;;;;;5093328;28;20164;-71
2021/12/22 01:20:53;;;;;;;24.55;14.95;;;-0.60;99.90;;;;;;5094305;28;20043;-71
2021/12/22 01:23:15;;;;;;;22.20;14.57;;;;;;;;;;5094059;28;20491;-71
2021/12/22 01:25:43;;;;;;;26.63;15.45;;;-0.60;99.90;;;;;;5094133;28;20047;-70
2021/12/22 01:28:10;;;;;;;22.95;14.50;;;-0.70;99.90;;;;;;5094410;28;20055;-71
2021/12/22 01:30:42;;;;;;;21.33;14.52;;;-0.80;99.90;;;;;;5073891;28;20199;-71
2021/12/22 01:33:08;;;;;;;21.10;14.25;;;-0.70;99.90;;;;;;5076857;28;20108;-72
2021/12/22 01:35:34;;;;;;;25.10;14.05;;;-0.80;99.90;;;;;;5093272;28;20488;-72
2021/12/22 01:38:01;;;;;;;21.38;13.90;;;1.30;99.90;;;;;;5094397;28;20056;-72
2021/12/22 01:40:27;;;;;;;20.92;12.82;;;-0.80;99.90;;;;;;5093775;28;20459;-71
2021/12/22 01:42:55;;;;;;;23.73;13.63;;;-0.80;99.90;;;;;;5094170;28;20164;-72
2021/12/22 01:51:48;;;;;;;23.88;14.25;;;-0.70;99.90;;;;;;5073831;28;20044;-71
2021/12/22 01:54:49;;;;;;;20.50;12.68;;;-0.70;99.90;;;;;;5072337;28;20059;-71
2021/12/22 01:57:19;;;;;;;22.83;13.52;;;-0.70;99.90;;;;;;5081548;28;20085;-71
2021/12/22 01:59:47;;;;;;;22.90;13.68;;;-0.80;99.90;;;;;;5094793;28;20043;-71
2021/12/22 02:02:14;;;;;;;21.20;13.52;;;-0.80;99.90;;;;;;5093925;28;20036;-71
2021/12/22 02:04:41;;;;;;;20.83;12.95;;;-0.80;99.90;;;;;;5077524;28;20492;-71
2021/12/22 02:07:08;;;;;;;20.42;13.00;;;-0.80;99.90;;;;;;5093258;28;20043;-71
2021/12/22 02:12:15;;;;;;;18.45;12.45;;;-0.80;99.90;;;;;;5093883;28;20066;-71
2021/12/22 02:14:41;;;;;;;20.65;13.30;;;-0.80;99.90;;;;;;5076594;28;20496;-71
2021/12/22 02:17:10;;;;;;;19.25;12.55;;;-0.80;99.90;;;;;;5093958;28;20123;-71
2021/12/22 02:19:44;;;;;;;19.08;13.35;;;-0.80;99.90;;;;;;5093967;28;20051;-71
2021/12/22 02:22:13;;;;;;;19.90;13.00;;;-1.00;99.90;;;;;;5076462;28;20032;-71
2021/12/22 02:24:44;;;;;;;21.60;12.13;;;-0.90;99.90;;;;;;5094309;28;20040;-71
2021/12/22 02:27:18;;;;;;;20.63;13.23;;;-1.00;99.90;;;;;;5082937;28;20044;-71
2021/12/22 02:29:47;;;;;;;22.75;13.77;;;-0.90;99.90;;;;;;5073154;28;20056;-71
2021/12/22 02:32:31;;;;;;;22.77;14.27;;;-0.60;99.90;;;;;;5073347;28;20043;-71
2021/12/22 02:35:02;;;;;;;23.55;14.73;;;-0.80;99.90;;;;;;5090328;28;20048;-72
2021/12/22 02:37:29;;;;;;;22.77;14.23;;;-1.00;99.90;;;;;;5073435;28;20477;-71
2021/12/22 02:40:11;;;;;;;25.25;14.82;;;;;;;;;;5090624;28;20036;-72
2021/12/22 02:42:37;;;;;;;21.48;12.98;;;-0.90;99.90;;;;;;5077477;28;20040;-70
2021/12/22 02:45:11;;;;;;;19.70;13.07;;;-1.00;99.90;;;;;;5073738;28;20044;-71
2021/12/22 02:47:37;;;;;;;21.88;13.68;;;-1.10;99.90;;;;;;5077330;28;20105;-71
2021/12/22 02:50:07;;;;;;;21.10;13.43;;;-1.00;99.90;;;;;;5093637;28;20048;-71
2021/12/22 02:52:47;;;;;;;21.17;13.68;;;-1.00;99.90;;;;;;5077225;28;20047;-71
2021/12/22 02:55:12;;;;;;;17.88;12.77;;;-1.00;99.90;;;;;;5077552;28;20432;-71
2021/12/22 02:57:44;;;;;;;19.42;13.20;;;-1.10;99.90;;;;;;5095144;28;20093;-71
2021/12/22 03:03:03;;;;;;;22.58;13.32;;;-1.00;99.90;;;;;;5082142;28;20040;-71
2021/12/22 03:05:29;;;;;;;22.20;14.32;;;-1.10;99.90;;;;;;5076429;28;20048;-71
2021/12/22 03:07:55;;;;;;;22.83;13.65;;;-1.00;99.90;;;;;;5074750;28;20039;-71
2021/12/22 03:10:21;;;;;;;21.70;14.45;;;-1.00;99.90;;;;;;5096272;28;20040;-71
2021/12/22 03:12:55;;;;;;;21.08;13.85;;;-1.00;99.90;;;;;;5060485;28;20381;-71
2021/12/22 03:15:22;;;;;;;21.20;12.77;;;-1.00;99.90;;;;;;5076681;28;20173;-71
2021/12/22 03:17:48;;;;;;;20.60;13.70;;;-1.20;99.90;;;;;;5076230;28;20040;-71
2021/12/22 03:20:15;;;;;;;25.73;15.38;;;-1.60;99.90;;;;;;5076800;28;20480;-71
2021/12/22 03:22:44;;;;;;;20.40;13.55;;;-1.00;99.90;;;;;;5092583;28;20139;-71
2021/12/22 03:25:17;;;;;;;20.77;13.25;;;-1.10;99.90;;;;;;5077477;28;20051;-71
2021/12/22 03:27:49;;;;;;;18.73;12.45;;;-1.00;99.90;;;;;;5094824;28;20047;-72
2021/12/22 03:30:23;;;;;;;21.80;12.73;;;-1.10;99.90;;;;;;5096788;28;20560;-72
2021/12/22 03:32:49;;;;;;;21.27;12.65;;;-1.10;99.90;;;;;;5096101;28;20071;-72
2021/12/22 03:35:19;;;;;;;18.42;12.30;;;-0.90;99.90;;;;;;5096590;28;20067;-71
2021/12/22 03:37:49;;;;;;;18.05;12.25;;;-1.20;99.90;;;;;;5096372;28;20043;-71
2021/12/22 03:40:15;;;;;;;23.10;12.35;;;;;;;;;;5109577;28;20040;-72
2021/12/22 03:42:41;;;;;;;17.13;11.52;;;;;;;;;;5079460;28;20046;-72
2021/12/22 03:45:08;;;;;;;19.83;12.93;;;-1.10;99.90;;;;;;5096677;28;20047;-72
2021/12/22 03:47:34;;;;;;;18.38;11.85;;;-1.10;99.90;;;;;;5079116;28;20043;-72
2021/12/22 03:50:00;;;;;;;20.13;12.43;;;-1.10;99.90;;;;;;5078598;28;20118;-71
2021/12/22 03:52:26;;;;;;;19.90;12.77;;;-1.10;99.90;;;;;;5095480;28;20055;-71
2021/12/22 03:54:57;;;;;;;21.45;13.95;;;-1.10;99.90;;;;;;5096483;28;20089;-72
2021/12/22 03:57:27;;;;;;;19.90;12.45;;;-1.20;99.90;;;;;;5095536;28;20051;-71
2021/12/22 03:59:53;;;;;;;21.25;13.10;;;-1.10;99.90;;;;;;5095385;28;20036;-72
2021/12/22 04:02:20;;;;;;;23.05;13.52;;;-0.80;99.90;;;;;;5092087;28;20039;-72
2021/12/22 04:04:48;;;;;;;15.35;11.15;;;-1.20;99.90;;;;;;5075851;28;20097;-72
2021/12/22 04:07:14;;;;;;;23.98;13.70;;;-1.30;99.90;;;;;;5086833;28;20052;-72
2021/12/22 04:09:40;;;;;;;20.30;12.73;;;-1.20;99.90;;;;;;5079862;28;20055;-72
2021/12/22 04:12:06;;;;;;;23.25;14.23;;;-1.20;99.90;;;;;;5095835;28;20047;-72
2021/12/22 04:14:32;;;;;;;21.63;13.55;;;-1.10;99.90;;;;;;5078385;28;20051;-72
2021/12/22 04:16:58;;;;;;;18.65;12.38;;;-1.40;99.90;;;;;;5066599;28;20408;-72
2021/12/22 04:19:23;;;;;;;20.83;12.30;;;-1.20;99.90;;;;;;5075259;28;20035;-72
2021/12/22 04:21:50;;;;;;;20.00;13.43;;;-1.20;99.90;;;;;;5119446;27;20048;-72
2021/12/22 04:24:17;;;;;;;24.80;14.32;;;-1.20;99.90;;;;;;5078348;28;20039;-72
2021/12/22 04:26:43;;;;;;;23.88;13.55;;;-1.20;99.90;;;;;;5096003;28;20046;-72
2021/12/22 04:29:12;;;;;;;21.80;11.95;;;-1.00;99.90;;;;;;5111643;28;20056;-72
2021/12/22 04:31:38;;;;;;;23.73;12.63;;;-1.30;99.90;;;;;;5096054;28;20373;-71
2021/12/22 04:34:08;;;;;;;21.58;12.38;;;0.40;99.90;;;;;;5095517;28;20052;-71
2021/12/22 04:36:35;;;;;;;21.75;12.57;;;-1.50;99.90;;;;;;5091753;28;20108;-72
2021/12/22 04:39:01;;;;;;;17.70;11.43;;;-1.30;99.90;;;;;;5095664;28;20039;-71
2021/12/22 04:41:27;;;;;;;21.92;11.85;;;-1.30;99.90;;;;;;5095408;28;20043;-71
2021/12/22 04:43:53;;;;;;;21.33;11.75;;;-1.30;99.90;;;;;;5077863;28;20074;-72
2021/12/22 04:46:21;;;;;;;21.60;11.60;;;-1.30;99.90;;;;;;5090304;28;20480;-71
2021/12/22 04:48:47;;;;;;;22.13;12.90;;;;;;;;;;5074011;28;20048;-71
2021/12/22 04:51:35;;;;;;;17.65;11.73;;;-1.30;99.90;;;;;;5079257;28;20040;-71
2021/12/22 04:56:24;;;;;;;22.73;12.38;;;-1.30;99.90;;;;;;5073747;28;20044;-72
2021/12/22 04:58:50;;;;;;;22.67;12.10;;;-1.40;99.90;;;;;;5074490;28;20119;-73
2021/12/22 05:01:16;;;;;;;17.52;12.27;;;-1.40;99.90;;;;;;5098125;28;20042;-72
2021/12/22 05:03:42;;;;;;;20.05;12.40;;;-1.40;99.90;;;;;;5094365;28;20039;-72
2021/12/22 05:06:07;;;;;;;21.38;12.15;;;-1.60;99.90;;;;;;5094650;28;20058;-71
2021/12/22 05:08:33;;;;;;;22.77;11.75;;;-1.40;99.90;;;;;;5094613;28;20051;-72
2021/12/22 05:10:59;;;;;;;18.60;11.65;;;-1.30;99.90;;;;;;5093917;28;20044;-72
2021/12/22 05:13:24;;;;;;;22.50;12.60;;;2.00;99.90;;;;;;5093792;28;20136;-72
2021/12/22 05:15:51;;;;;;;19.35;12.07;;;-1.20;99.90;;;;;;5094711;28;20043;-72
2021/12/22 05:18:36;;;;;;;19.23;11.98;;;-1.50;99.90;;;;;;5093872;28;20089;-71
2021/12/22 05:21:01;;;;;;;21.20;13.25;;;-1.50;99.90;;;;;;5094352;28;20500;-72
2021/12/22 05:23:27;;;;;;;21.05;13.10;;;-1.50;99.90;;;;;;5094067;28;20031;-71
2021/12/22 05:25:53;;;;;;;18.52;12.65;;;-1.40;99.90;;;;;;5076680;28;20127;-73
2021/12/22 05:28:18;;;;;;;17.33;11.90;;;-1.30;99.90;;;;;;5094543;28;20407;-73
2021/12/22 05:30:46;;;;;;;21.35;12.90;;;-1.60;99.90;;;;;;5079838;28;20054;-72
2021/12/22 05:33:13;;;;;;;21.00;12.32;;;-1.40;99.90;;;;;;5073635;28;20044;-72
2021/12/22 05:35:38;;;;;;;20.60;12.95;;;-1.70;99.90;;;;;;5074333;28;20040;-72
2021/12/22 05:38:04;;;;;;;19.92;12.57;;;-1.70;99.90;;;;;;5107419;28;20028;-72
2021/12/22 05:40:30;;;;;;;21.15;12.63;;;-1.50;99.90;;;;;;5074423;28;20493;-72
2021/12/22 05:42:57;;;;;;;21.27;12.25;;;-1.40;99.90;;;;;;5074378;28;20484;-72
2021/12/22 05:45:23;;;;;;;22.88;12.95;;;-1.60;99.90;;;;;;5073183;28;20165;-72
2021/12/22 05:47:50;;;;;;;18.85;12.10;;;-1.30;99.90;;;;;;5057493;28;20051;-71
2021/12/22 05:50:16;;;;;;;22.70;11.85;;;-1.50;99.90;;;;;;5057419;28;20501;-72
2021/12/22 05:52:41;;;;;;;19.60;11.63;;;-1.60;99.90;;;;;;5079460;28;20035;-72
2021/12/22 05:55:07;;;;;;;21.85;11.93;;;-1.70;99.90;;;;;;5094107;28;20039;-73
2021/12/22 05:57:33;;;;;;;22.85;12.10;;;-1.60;99.90;;;;;;5094194;28;20050;-72
2021/12/22 05:59:58;;;;;;;19.83;12.95;;;-1.60;99.90;;;;;;5091056;28;20047;-71
2021/12/22 06:02:24;;;;;;;21.33;12.95;;;-1.60;99.90;;;;;;5128372;28;20039;-71
2021/12/22 06:04:50;;;;;;;19.63;12.95;;;-2.00;99.90;;;;;;5076547;28;20067;-71
2021/12/22 06:07:16;;;;;;;22.73;13.50;;;-1.50;99.90;;;;;;5093368;28;20039;-71
2021/12/22 06:09:42;;;;;;;19.83;11.48;;;-1.80;99.90;;;;;;5077721;28;20039;-71
2021/12/22 06:12:07;;;;;;;19.17;12.20;;;-1.80;99.90;;;;;;5094123;28;20496;-71
2021/12/22 06:14:33;;;;;;;19.88;12.05;;;-1.70;99.90;;;;;;5092796;28;20050;-71
2021/12/22 06:16:59;;;;;;;17.80;12.02;;;;;;;;;;5093979;28;20039;-71
2021/12/22 06:19:25;;;;;;;19.63;12.32;;;-1.70;99.90;;;;;;5094036;28;20055;-71
2021/12/22 06:21:50;;;;;;;20.88;12.23;;;-1.50;99.90;;;;;;5129391;27;20384;-71
2021/12/22 06:24:16;;;;;;;20.27;12.77;;;-1.30;99.90;;;;;;5098165;28;20043;-71
2021/12/22 06:26:42;;;;;;;21.95;12.57;;;-1.50;99.90;;;;;;5098440;28;20039;-72
2021/12/22 06:29:08;;;;;;;22.65;12.25;;;-1.90;99.90;;;;;;5095951;28;20115;-72
2021/12/22 06:31:33;;;;;;;20.20;11.93;;;-1.90;99.90;;;;;;5131385;27;20051;-72
2021/12/22 06:33:59;;;;;;;23.20;13.85;;;-2.20;99.90;;;;;;5098028;28;20096;-72
2021/12/22 06:36:25;;;;;;;22.35;12.02;;;-1.90;99.90;;;;;;5096936;28;20071;-71
2021/12/22 06:38:50;;;;;;;23.13;14.38;;;-1.80;99.90;;;;;;5080718;28;20035;-72
2021/12/22 06:41:16;;;;;;;21.38;12.73;;;-2.10;99.90;;;;;;5079947;28;20037;-71
2021/12/22 06:43:42;;;;;;;22.13;14.27;;;-1.90;99.90;;;;;;5091851;28;20043;-72
2021/12/22 06:46:09;;;;;;;22.05;12.93;;;;;;;;;;5111086;28;20047;-71
2021/12/22 06:48:35;;;;;;;24.58;13.48;;;-1.70;99.90;;;;;;5076687;28;20382;-71
2021/12/22 06:51:00;;;;;;;20.58;11.63;;;-2.20;99.90;;;;;;5077365;28;20066;-72
2021/12/22 06:53:26;;;;;;;20.95;11.35;;;-1.70;99.90;;;;;;5111341;28;20032;-72
2021/12/22 06:55:52;;;;;;;22.25;13.25;;;-1.80;99.90;;;;;;5078127;28;20040;-72
2021/12/22 06:58:18;;;;;;;19.00;11.90;;;-1.80;99.90;;;;;;5097327;28;20193;-71
2021/12/22 07:00:43;;;;;;;19.58;10.88;;;-1.80;99.90;;;;;;5097686;28;20438;-71
2021/12/22 07:03:09;;;;;;;23.48;12.48;;;-2.00;99.90;;;;;;5096930;28;20082;-72
2021/12/22 07:05:35;;;;;;;20.00;12.00;;;;;;;;;;5097395;28;20123;-71
2021/12/22 07:08:01;;;;;;;22.25;12.73;;;;;;;;;;5096532;28;20036;-71
2021/12/22 07:10:27;;;;;;;21.75;12.15;;;-1.30;99.90;;;;;;5087718;28;20123;-71
2021/12/22 07:12:53;;;;;;;20.60;12.70;;;-1.70;99.90;;;;;;5076919;28;20128;-70
2021/12/22 07:15:19;;;;;;;21.65;13.38;;;-2.10;99.90;;;;;;5076944;28;20090;-71
2021/12/22 07:17:48;;;;;;;21.10;11.75;;;-2.00;99.90;;;;;;5076324;28;20044;-71
2021/12/22 07:20:16;;;;;;;24.30;12.32;;;-1.90;99.90;;;;;;5080619;28;20081;-71
2021/12/22 07:22:42;;;;;;;21.17;12.93;;;-0.40;99.90;;;;;;5071913;28;20040;-71
2021/12/22 07:25:09;;;;;;;23.90;13.00;;;-2.00;99.90;;;;;;5075797;28;20059;-71
2021/12/22 07:27:34;;;;;;;24.42;12.25;;;-2.00;99.90;;;;;;5076364;28;20392;-71
2021/12/22 07:30:00;;;;;;;22.42;13.65;;;-2.00;99.90;;;;;;5076346;28;20060;-71
2021/12/22 07:32:26;;;;;;;27.88;14.05;;;-2.00;99.90;;;;;;5075621;28;20054;-71
2021/12/22 07:35:03;;;;;;;22.10;13.43;;;-2.10;99.90;;;;;;5095849;28;20051;-72
2021/12/22 07:37:47;;;;;;;23.55;12.82;;;-2.10;99.90;;;;;;5079183;28;20488;-72
2021/12/22 07:40:19;;;;;;;17.83;11.85;;;-1.80;99.90;;;;;;5075378;28;20038;-71
2021/12/22 07:42:45;;;;;;;22.83;12.85;;;-2.10;99.90;;;;;;5076641;28;20044;-71
2021/12/22 07:45:12;;;;;;;21.75;11.95;;;-1.80;99.90;;;;;;5075791;28;20127;-71
2021/12/22 07:47:38;;;;;;;23.48;12.40;;;-2.00;99.90;;;;;;5076634;28;20032;-71
2021/12/22 07:50:05;;;;;;;23.83;11.90;;;-2.00;99.90;;;;;;5076077;28;20533;-72
2021/12/22 07:52:31;;;;;;;21.73;12.15;;;-1.90;99.90;;;;;;5089673;28;20032;-71
2021/12/22 07:54:57;;;;;;;22.73;12.85;;;-1.20;99.90;;;;;;5096214;28;20441;-73
2021/12/22 07:57:23;;;;;;;21.42;13.40;;;-2.10;99.90;;;;;;5079953;28;20073;-72
2021/12/22 07:59:49;;;;;;;23.13;11.77;;;-1.90;99.90;;;;;;5095196;28;20067;-72
2021/12/22 08:02:15;;;;;;;22.98;12.00;;;-2.00;99.90;;;;;;5096356;28;20489;-72
2021/12/22 08:04:41;;;;;;;23.13;11.57;;;-2.00;99.90;;;;;;5096310;28;20035;-71
2021/12/22 08:07:07;;;;;;;20.35;12.70;;;-1.90;99.90;;;;;;5094737;28;20468;-71
2021/12/22 08:09:33;;;;;;;18.92;10.65;;;-0.40;99.90;;;;;;5079215;28;20093;-71
2021/12/22 08:12:05;;;;;;;20.95;11.80;;;-1.80;99.90;;;;;;5096279;28;20085;-71
2021/12/22 08:14:35;;;;;;;24.17;12.10;;;-1.80;99.90;;;;;;5094859;28;20036;-71
2021/12/22 08:17:01;;;;;;;21.20;11.63;;;-1.80;99.90;;;;;;5096033;28;20035;-71
2021/12/22 08:19:27;;;;;;;19.52;11.70;;;-0.60;99.90;;;;;;5095938;28;20040;-71
2021/12/22 08:21:53;;;;;;;22.65;12.82;;;-1.90;99.90;;;;;;5082711;28;20557;-72
2021/12/22 08:24:20;;;;;;;18.75;11.68;;;;;;;;;;5076624;28;20039;-71
2021/12/22 08:26:45;;;;;;;21.60;11.85;;;-1.60;99.90;;;;;;5091187;28;20062;-71
2021/12/22 08:29:11;;;;;;;19.20;12.15;;;-1.50;99.90;;;;;;5128017;27;20059;-71
2021/12/22 08:31:37;;;;;;;19.85;12.02;;;-1.20;99.90;;;;;;5095842;28;20126;-71
2021/12/22 08:34:04;;;;;;;22.75;13.00;;;;;;;;;;5095054;28;20035;-71
2021/12/22 08:39:34;;;;;;;27.25;13.57;;;-1.70;99.90;;;;;;5093929;28;20043;-72
2021/12/22 08:41:59;;;;;;;23.50;14.15;;;-1.70;99.90;;;;;;5109503;27;20047;-72
2021/12/22 08:44:26;;;;;;;25.20;12.40;;;-1.70;99.90;;;;;;5078086;28;20035;-71
2021/12/22 08:46:52;;;;;;;21.77;13.20;;;-1.80;99.90;;;;;;5094789;28;20047;-71
2021/12/22 08:49:20;;;;;;;23.98;15.55;;;-1.50;99.90;;;;;;5087487;28;20028;-71
2021/12/22 08:51:47;;;;;;;26.35;14.27;;;-1.60;99.90;;;;;;5110171;27;20416;-72
2021/12/22 08:54:13;;;;;;;20.67;13.25;;;-1.20;99.90;;;;;;5074682;28;20043;-71
2021/12/22 08:56:40;;;;;;;20.90;12.50;;;-0.80;99.90;;;;;;5074546;28;20088;-72
2021/12/22 08:59:08;;;;;;;21.80;13.05;;;-1.60;99.90;;;;;;5108907;28;20346;-72
2021/12/22 09:01:33;;;;;;;23.85;14.50;;;-1.50;99.90;;;;;;5091040;28;20032;-72
2021/12/22 09:03:59;;;;;;;26.17;15.38;;;-1.50;99.90;;;;;;5080650;28;20122;-72
2021/12/22 09:06:25;;;;;;;28.63;16.98;;;-1.60;99.90;;;;;;5088545;28;20412;-69
2021/12/22 09:08:52;;;;;;;29.77;15.73;;;-1.20;99.90;;;;;;5090844;28;20061;-72
2021/12/22 09:11:19;;;;;;;22.50;13.20;;;-1.20;99.90;;;;;;5091575;28;20440;-72
2021/12/22 09:13:45;;;;;;;23.67;12.38;;;-1.30;99.90;;;;;;5092387;28;20047;-72
2021/12/22 09:16:12;;;;;;;20.70;13.95;;;-1.10;99.90;;;;;;5090739;28;21973;-70
2021/12/22 09:18:39;;;;;;;25.67;12.73;;;-1.20;99.90;;;;;;5091236;28;20028;-69
2021/12/22 09:21:07;;;;;;;25.00;12.85;;;-1.10;99.90;;;;;;5090168;28;20038;-73
2021/12/22 09:23:33;;;;;;;23.75;12.45;;;-1.20;99.90;;;;;;5091104;28;20114;-70
2021/12/22 09:25:58;;;;;;;27.35;13.60;;;-1.20;99.90;;;;;;5091802;28;20126;-72
2021/12/22 09:28:24;;;;;;;23.63;13.27;;;-1.60;99.90;;;;;;5091354;28;20063;-71
2021/12/22 09:30:51;;;;;;;21.17;12.10;;;-1.00;99.90;;;;;;5073363;28;20051;-70
2021/12/22 09:33:18;;;;;;;23.42;12.63;;;-0.70;99.90;;;;;;5091513;28;20503;-72
2021/12/22 09:35:46;;;;;;;23.40;12.45;;;-0.90;99.90;;;;;;5091348;28;20051;-67
2021/12/22 09:38:13;;;;;;;19.92;13.00;;;-0.90;99.90;;;;;;5091792;28;20043;-68
2021/12/22 09:40:39;;;;;;;20.80;12.52;;;-1.00;99.90;;;;;;5092274;28;20552;-67
2021/12/22 09:43:06;;;;;;;21.60;12.13;;;-1.00;99.90;;;;;;5075227;28;20150;-70
2021/12/22 09:45:34;;;;;;;19.95;13.60;;;-0.80;99.90;;;;;;5091312;28;20089;-70
2021/12/22 09:53:04;;;;;;;20.85;11.90;;;-0.90;99.90;;;;;;5071371;28;20138;-70
2021/12/22 09:55:33;;;;;;;21.80;12.07;;;-0.80;99.90;;;;;;5081489;28;20547;-68
2021/12/22 09:58:00;;;;;;;23.65;12.90;;;;;;;;;;5075376;28;20031;-71
2021/12/22 10:00:29;;;;;;;21.52;12.88;;;;;;;;;;5074246;28;20043;-72
2021/12/22 10:02:55;;;;;;;20.20;11.77;;;;;;;;;;5091887;28;20040;-71
2021/12/22 10:05:21;;;;;;;20.80;12.95;;;;;;;;;;5091358;28;20414;-71
2021/12/22 10:08:04;;;;;;;20.08;12.38;;;;;;;;;;5075187;28;20127;-71
2021/12/22 10:10:30;;;;;;;21.88;12.27;;;;;;;;;;5091862;28;20129;-71
2021/12/22 10:13:07;;;;;;;21.50;10.90;;;-0.40;99.90;;;;;;5091435;28;20097;-71
2021/12/22 10:15:35;;;;;;;26.95;12.77;;;-0.40;99.90;;;;;;5090836;28;20043;-71
2021/12/22 10:18:13;;;;;;;19.92;13.75;;;-0.40;99.90;;;;;;5091096;28;20088;-71
2021/12/22 10:20:41;;;;;;;25.65;13.38;;;-0.40;99.90;;;;;;5074521;28;20468;-71
2021/12/22 10:23:28;;;;;;;20.95;12.75;;;-0.50;99.90;;;;;;5074815;28;20054;-71
2021/12/22 10:25:56;;;;;;;22.75;12.55;;;-0.10;99.90;;;;;;5074820;28;20039;-71
2021/12/22 10:28:23;;;;;;;25.35;12.20;;;-0.50;99.90;;;;;;5086602;28;20063;-71
2021/12/22 10:30:55;;;;;;;20.42;11.25;;;-0.50;99.90;;;;;;5071191;28;20055;-71
2021/12/22 10:33:27;;;;;;;22.35;13.23;;;-0.50;99.90;;;;;;5087777;28;20052;-71
2021/12/22 10:35:55;;;;;;;19.83;11.82;;;0.00;99.90;;;;;;5088257;28;20158;-71
2021/12/22 10:38:25;;;;;;;20.60;11.93;;;-0.60;99.90;;;;;;5088074;28;20047;-71
2021/12/22 10:41:01;;;;;;;21.98;12.40;;;-0.40;99.90;;;;;;5087615;28;20101;-72
2021/12/22 10:43:33;;;;;;;21.25;13.23;;;-0.20;99.90;;;;;;5086908;28;20036;-72
2021/12/22 10:46:01;;;;;;;19.90;12.38;;;-0.10;99.90;;;;;;5087676;28;20151;-72
2021/12/22 10:51:20;;;;;;;21.58;12.75;;;-0.20;99.90;;;;;;5084630;28;20083;-71
2021/12/22 10:53:50;;;;;;;20.25;10.82;;;-0.10;99.90;;;;;;5070904;28;20477;-71
2021/12/22 10:56:33;;;;;;;21.27;12.63;;;-0.30;99.90;;;;;;5087033;28;20044;-71
2021/12/22 10:59:03;;;;;;;26.63;13.20;;;0.10;99.90;;;;;;5087331;28;20036;-69
2021/12/22 11:01:28;;;;;;;24.45;13.07;;;-0.10;99.90;;;;;;5070580;28;20849;-71
2021/12/22 11:04:02;;;;;;;22.63;12.80;;;0.10;99.90;;;;;;5066599;28;20036;-71
2021/12/22 11:06:30;;;;;;;25.05;13.27;;;0.00;99.90;;;;;;5084949;28;20063;-71
2021/12/22 11:09:10;;;;;;;22.90;12.52;;;0.00;99.90;;;;;;5090370;28;20570;-71
2021/12/22 11:11:38;;;;;;;23.25;13.23;;;0.10;99.90;;;;;;5075291;28;20078;-71
2021/12/22 11:14:11;;;;;;;25.40;12.65;;;0.10;99.90;;;;;;5076686;28;20101;-71
2021/12/22 11:16:50;;;;;;;22.13;12.35;;;0.10;99.90;;;;;;5093537;28;20047;-71
2021/12/22 11:19:16;;;;;;;23.30;12.95;;;0.20;99.90;;;;;;5094028;28;20062;-71
2021/12/22 11:22:05;;;;;;;27.25;12.68;;;0.20;99.90;;;;;;5076731;28;20036;-70
2021/12/22 11:24:38;;;;;;;21.02;11.95;;;0.50;99.90;;;;;;5093328;28;20078;-71
2021/12/22 11:27:04;;;;;;;21.17;11.27;;;0.20;99.90;;;;;;5085127;28;20044;-71
2021/12/22 11:29:33;;;;;;;20.20;12.48;;;0.20;99.90;;;;;;5086117;28;20060;-73
2021/12/22 11:32:01;;;;;;;20.50;11.25;;;0.20;99.90;;;;;;5092980;28;20063;-74
2021/12/22 11:34:29;;;;;;;20.42;11.50;;;0.20;99.90;;;;;;5093269;28;20043;-74
2021/12/22 11:36:56;;;;;;;21.13;11.40;;;0.20;99.90;;;;;;5093274;28;20093;-74
2021/12/22 11:39:22;;;;;;;21.40;11.93;;;0.20;99.90;;;;;;5093727;28;20472;-70
2021/12/22 11:41:57;;;;;;;23.35;11.63;;;0.30;99.90;;;;;;5081800;28;20105;-71
2021/12/22 11:44:25;;;;;;;24.63;12.63;;;0.30;99.90;;;;;;5072680;28;20040;-71
2021/12/22 11:46:58;;;;;;;24.13;13.10;;;0.30;99.90;;;;;;5073034;28;20174;-74
2021/12/22 11:49:25;;;;;;;24.35;13.02;;;0.40;99.90;;;;;;5083352;28;20040;-74
2021/12/22 11:51:52;;;;;;;38.78;17.90;;;0.40;99.90;;;;;;5089027;28;20047;-78
2021/12/22 11:54:24;;;;;;;27.85;15.15;;;;;;;;;;5076969;28;20048;-79
2021/12/22 11:56:53;;;;;;;24.05;13.63;;;0.50;99.90;;;;;;5093134;28;20055;-78
2021/12/22 11:59:36;;;;;;;21.90;13.18;;;0.80;99.90;;;;;;5093378;28;20040;-74
2021/12/22 12:02:21;;;;;;;21.13;13.13;;;0.40;99.90;;;;;;5093187;28;20048;-73
2021/12/22 12:04:49;;;;;;;22.08;12.32;;;0.30;99.90;;;;;;5089461;28;20051;-74
2021/12/22 12:07:44;;;;;;;27.27;13.32;;;0.50;99.90;;;;;;5072852;28;20078;-73
2021/12/22 12:10:30;;;;;;;21.48;13.27;;;0.70;99.90;;;;;;5072339;28;20032;-74
2021/12/22 12:13:02;;;;;;;19.92;11.75;;;;;;;;;;5086722;28;20044;-74
2021/12/22 12:21:54;;;;;;;21.52;13.05;;;0.50;99.90;;;;;;5082740;28;20048;-74
2021/12/22 12:24:32;;;;;;;30.10;15.45;;;0.60;99.90;;;;;;5089726;28;20043;-74
2021/12/22 12:26:59;;;;;;;29.08;15.90;;;0.60;99.90;;;;;;5089547;28;20044;-73
2021/12/22 12:29:53;;;;;;;25.88;14.10;;;0.70;99.90;;;;;;5083965;28;20048;-74
2021/12/22 12:32:40;;;;;;;25.30;13.25;;;0.70;99.90;;;;;;5069342;28;20059;-73
2021/12/22 12:35:18;;;;;;;27.25;14.00;;;0.80;99.90;;;;;;5051811;28;20696;-73
2021/12/22 12:38:32;;;;;;;22.77;13.52;;;0.80;99.90;;;;;;5069498;28;20040;-73
2021/12/22 12:40:57;;;;;;;23.45;13.07;;;0.90;99.90;;;;;;5015904;28;20052;-73
2021/12/22 12:43:44;;;;;;;22.77;12.85;;;0.90;99.90;;;;;;5061176;28;20036;-80
2021/12/22 12:46:19;;;;;;;20.40;11.98;;;0.90;99.90;;;;;;5071003;28;20507;-80
2021/12/22 12:48:46;;;;;;;20.90;11.98;;;0.90;99.90;;;;;;5069759;28;20074;-73
2021/12/22 12:51:26;;;;;;;27.55;14.00;;;0.90;99.90;;;;;;5069675;28;20131;-73
2021/12/22 12:53:56;;;;;;;28.05;14.57;;;0.90;99.90;;;;;;5068672;28;20056;-72
2021/12/22 12:56:30;;;;;;;23.90;12.75;;;0.90;99.90;;;;;;5068952;28;20417;-75
2021/12/22 12:58:57;;;;;;;24.23;13.85;;;0.90;99.90;;;;;;5067937;28;20124;-73
2021/12/22 13:01:50;;;;;;;26.33;13.98;;;0.80;99.90;;;;;;5068918;28;20046;-73
2021/12/22 13:04:31;;;;;;;22.45;12.85;;;0.80;99.90;;;;;;5042423;28;20700;-73
2021/12/22 13:07:18;;;;;;;19.73;12.95;;;0.70;99.90;;;;;;5068284;28;20135;-73
2021/12/22 13:10:01;;;;;;;23.33;12.60;;;0.90;99.90;;;;;;5052027;28;20044;-73
2021/12/22 13:17:54;;;;;;;21.48;13.55;;;0.70;99.90;;;;;;5070853;28;20051;-73
2021/12/22 13:20:28;;;;;;;27.27;13.27;;;1.10;99.90;;;;;;5070369;28;20446;-74
2021/12/22 13:22:56;;;;;;;22.17;12.85;;;0.80;99.90;;;;;;5063469;28;20038;-74